sensor_id;sensor_type;location;lat;lon;timestamp;P1;durP1;ratioP1;P2;durP2;ratioP2
12480;SDS011;6305;48.398;11.762;2023-03-01T00:01:02;25.83;;;13.87;;
12480;SDS011;6305;48.398;11.762;2023-03-01T00:03:30;20.50;;;13.33;;
12480;SDS011;6305;48.398;11.762;2023-03-01T00:05:57;27.30;;;14.00;;
12480;SDS011;6305;48.398;11.762;2023-03-01T00:08:25;22.60;;;14.13;;
12480;SDS011;6305;48.398;11.762;2023-03-01T00:10:59;24.97;;;13.83;;
12480;SDS011;6305;48.398;11.762;2023-03-01T00:13:27;26.43;;;14.80;;
12480;SDS011;6305;48.398;11.762;2023-03-01T00:15:54;23.30;;;14.10;;
12480;SDS011;6305;48.398;11.762;2023-03-01T00:18:22;23.90;;;13.93;;
12480;SDS011;6305;48.398;11.762;2023-03-01T00:20:49;22.73;;;13.83;;
12480;SDS011;6305;48.398;11.762;2023-03-01T00:23:17;21.07;;;13.50;;
12480;SDS011;6305;48.398;11.762;2023-03-01T00:25:44;23.23;;;13.40;;
12480;SDS011;6305;48.398;11.762;2023-03-01T00:28:11;22.92;;;14.13;;
12480;SDS011;6305;48.398;11.762;2023-03-01T00:30:39;25.30;;;14.70;;
12480;SDS011;6305;48.398;11.762;2023-03-01T00:33:06;25.43;;;14.80;;
12480;SDS011;6305;48.398;11.762;2023-03-01T00:35:35;26.73;;;14.17;;
12480;SDS011;6305;48.398;11.762;2023-03-01T00:38:02;21.83;;;14.33;;
12480;SDS011;6305;48.398;11.762;2023-03-01T00:40:30;23.60;;;13.73;;
12480;SDS011;6305;48.398;11.762;2023-03-01T00:42:58;23.27;;;14.20;;
12480;SDS011;6305;48.398;11.762;2023-03-01T00:45:26;21.53;;;13.50;;
12480;SDS011;6305;48.398;11.762;2023-03-01T00:47:53;23.77;;;13.97;;
12480;SDS011;6305;48.398;11.762;2023-03-01T00:50:20;24.53;;;14.60;;
12480;SDS011;6305;48.398;11.762;2023-03-01T00:52:51;23.03;;;14.00;;
12480;SDS011;6305;48.398;11.762;2023-03-01T00:55:19;22.13;;;13.80;;
12480;SDS011;6305;48.398;11.762;2023-03-01T00:57:46;26.00;;;14.27;;
12480;SDS011;6305;48.398;11.762;2023-03-01T01:00:13;26.93;;;14.10;;
12480;SDS011;6305;48.398;11.762;2023-03-01T01:02:41;24.53;;;14.17;;
12480;SDS011;6305;48.398;11.762;2023-03-01T01:05:08;23.70;;;14.00;;
12480;SDS011;6305;48.398;11.762;2023-03-01T01:07:35;25.50;;;13.73;;
12480;SDS011;6305;48.398;11.762;2023-03-01T01:10:05;26.43;;;14.60;;
12480;SDS011;6305;48.398;11.762;2023-03-01T01:12:32;27.70;;;14.73;;
12480;SDS011;6305;48.398;11.762;2023-03-01T01:15:00;24.87;;;13.90;;
12480;SDS011;6305;48.398;11.762;2023-03-01T01:17:26;23.67;;;13.87;;
12480;SDS011;6305;48.398;11.762;2023-03-01T01:19:54;23.33;;;13.97;;
12480;SDS011;6305;48.398;11.762;2023-03-01T01:22:21;21.07;;;13.73;;
12480;SDS011;6305;48.398;11.762;2023-03-01T01:24:48;24.10;;;14.60;;
12480;SDS011;6305;48.398;11.762;2023-03-01T01:27:16;24.60;;;13.87;;
12480;SDS011;6305;48.398;11.762;2023-03-01T01:29:43;25.93;;;14.43;;
12480;SDS011;6305;48.398;11.762;2023-03-01T01:32:10;25.23;;;13.93;;
12480;SDS011;6305;48.398;11.762;2023-03-01T01:34:37;23.53;;;14.07;;
12480;SDS011;6305;48.398;11.762;2023-03-01T01:37:03;24.13;;;14.00;;
12480;SDS011;6305;48.398;11.762;2023-03-01T01:39:33;29.43;;;14.57;;
12480;SDS011;6305;48.398;11.762;2023-03-01T01:42:00;24.53;;;13.97;;
12480;SDS011;6305;48.398;11.762;2023-03-01T01:44:29;21.20;;;12.97;;
12480;SDS011;6305;48.398;11.762;2023-03-01T01:46:57;22.67;;;13.63;;
12480;SDS011;6305;48.398;11.762;2023-03-01T01:49:28;24.47;;;13.83;;
12480;SDS011;6305;48.398;11.762;2023-03-01T01:52:01;23.93;;;13.53;;
12480;SDS011;6305;48.398;11.762;2023-03-01T01:54:36;22.53;;;14.27;;
12480;SDS011;6305;48.398;11.762;2023-03-01T01:57:09;24.73;;;13.87;;
12480;SDS011;6305;48.398;11.762;2023-03-01T01:59:41;24.10;;;14.40;;
12480;SDS011;6305;48.398;11.762;2023-03-01T02:02:14;26.13;;;14.27;;
12480;SDS011;6305;48.398;11.762;2023-03-01T02:04:41;26.37;;;13.47;;
12480;SDS011;6305;48.398;11.762;2023-03-01T02:07:11;23.30;;;14.27;;
12480;SDS011;6305;48.398;11.762;2023-03-01T02:09:42;27.07;;;14.20;;
12480;SDS011;6305;48.398;11.762;2023-03-01T02:12:13;22.50;;;13.57;;
12480;SDS011;6305;48.398;11.762;2023-03-01T02:14:42;22.97;;;13.73;;
12480;SDS011;6305;48.398;11.762;2023-03-01T02:17:09;23.00;;;13.87;;
12480;SDS011;6305;48.398;11.762;2023-03-01T02:19:40;23.03;;;13.40;;
12480;SDS011;6305;48.398;11.762;2023-03-01T02:22:19;26.50;;;14.20;;
12480;SDS011;6305;48.398;11.762;2023-03-01T02:24:52;21.60;;;13.17;;
12480;SDS011;6305;48.398;11.762;2023-03-01T02:27:35;25.27;;;13.57;;
12480;SDS011;6305;48.398;11.762;2023-03-01T02:30:09;24.30;;;13.60;;
12480;SDS011;6305;48.398;11.762;2023-03-01T02:32:38;24.13;;;13.37;;
12480;SDS011;6305;48.398;11.762;2023-03-01T02:35:07;23.80;;;13.53;;
12480;SDS011;6305;48.398;11.762;2023-03-01T02:37:36;23.23;;;13.57;;
12480;SDS011;6305;48.398;11.762;2023-03-01T02:40:06;22.03;;;13.17;;
12480;SDS011;6305;48.398;11.762;2023-03-01T02:42:39;23.67;;;13.63;;
12480;SDS011;6305;48.398;11.762;2023-03-01T02:45:13;24.63;;;14.30;;
12480;SDS011;6305;48.398;11.762;2023-03-01T02:47:40;25.23;;;13.50;;
12480;SDS011;6305;48.398;11.762;2023-03-01T02:50:12;24.00;;;14.33;;
12480;SDS011;6305;48.398;11.762;2023-03-01T02:52:52;22.77;;;13.70;;
12480;SDS011;6305;48.398;11.762;2023-03-01T02:55:25;25.93;;;14.60;;
12480;SDS011;6305;48.398;11.762;2023-03-01T02:57:53;22.73;;;13.77;;
12480;SDS011;6305;48.398;11.762;2023-03-01T03:00:23;23.53;;;14.37;;
12480;SDS011;6305;48.398;11.762;2023-03-01T03:02:54;24.70;;;13.37;;
12480;SDS011;6305;48.398;11.762;2023-03-01T03:05:24;22.67;;;13.43;;
12480;SDS011;6305;48.398;11.762;2023-03-01T03:07:56;22.73;;;14.63;;
12480;SDS011;6305;48.398;11.762;2023-03-01T03:10:25;23.60;;;14.47;;
12480;SDS011;6305;48.398;11.762;2023-03-01T03:12:54;25.70;;;14.30;;
12480;SDS011;6305;48.398;11.762;2023-03-01T03:15:24;20.10;;;13.30;;
12480;SDS011;6305;48.398;11.762;2023-03-01T03:17:53;25.30;;;14.90;;
12480;SDS011;6305;48.398;11.762;2023-03-01T03:20:22;26.43;;;15.13;;
12480;SDS011;6305;48.398;11.762;2023-03-01T03:22:53;29.53;;;15.43;;
12480;SDS011;6305;48.398;11.762;2023-03-01T03:25:21;23.80;;;14.70;;
12480;SDS011;6305;48.398;11.762;2023-03-01T03:27:50;27.70;;;16.10;;
12480;SDS011;6305;48.398;11.762;2023-03-01T03:30:22;26.07;;;15.60;;
12480;SDS011;6305;48.398;11.762;2023-03-01T03:32:52;26.70;;;15.33;;
12480;SDS011;6305;48.398;11.762;2023-03-01T03:35:20;26.87;;;15.93;;
12480;SDS011;6305;48.398;11.762;2023-03-01T03:37:50;26.93;;;15.57;;
12480;SDS011;6305;48.398;11.762;2023-03-01T03:40:32;27.07;;;15.90;;
12480;SDS011;6305;48.398;11.762;2023-03-01T03:43:01;29.93;;;17.13;;
12480;SDS011;6305;48.398;11.762;2023-03-01T03:45:29;30.63;;;17.80;;
12480;SDS011;6305;48.398;11.762;2023-03-01T03:47:58;33.63;;;18.17;;
12480;SDS011;6305;48.398;11.762;2023-03-01T03:50:25;29.67;;;17.80;;
12480;SDS011;6305;48.398;11.762;2023-03-01T03:52:52;31.10;;;17.70;;
12480;SDS011;6305;48.398;11.762;2023-03-01T03:55:19;30.63;;;17.97;;
12480;SDS011;6305;48.398;11.762;2023-03-01T03:57:46;31.00;;;18.13;;
12480;SDS011;6305;48.398;11.762;2023-03-01T04:00:17;31.93;;;18.40;;
12480;SDS011;6305;48.398;11.762;2023-03-01T04:02:48;30.07;;;18.33;;
12480;SDS011;6305;48.398;11.762;2023-03-01T04:05:16;34.20;;;20.03;;
12480;SDS011;6305;48.398;11.762;2023-03-01T04:07:44;31.73;;;19.27;;
12480;SDS011;6305;48.398;11.762;2023-03-01T04:10:12;29.33;;;18.50;;
12480;SDS011;6305;48.398;11.762;2023-03-01T04:12:40;35.20;;;20.07;;
12480;SDS011;6305;48.398;11.762;2023-03-01T04:15:08;32.57;;;19.20;;
12480;SDS011;6305;48.398;11.762;2023-03-01T04:17:38;38.03;;;20.30;;
12480;SDS011;6305;48.398;11.762;2023-03-01T04:20:09;36.20;;;20.57;;
12480;SDS011;6305;48.398;11.762;2023-03-01T04:22:37;35.67;;;19.73;;
12480;SDS011;6305;48.398;11.762;2023-03-01T04:25:05;37.00;;;19.83;;
12480;SDS011;6305;48.398;11.762;2023-03-01T04:27:33;31.80;;;19.73;;
12480;SDS011;6305;48.398;11.762;2023-03-01T04:30:01;34.40;;;20.47;;
12480;SDS011;6305;48.398;11.762;2023-03-01T04:32:29;33.97;;;19.20;;
12480;SDS011;6305;48.398;11.762;2023-03-01T04:34:56;33.83;;;19.13;;
12480;SDS011;6305;48.398;11.762;2023-03-01T04:37:25;36.40;;;20.33;;
12480;SDS011;6305;48.398;11.762;2023-03-01T04:39:52;36.47;;;20.67;;
12480;SDS011;6305;48.398;11.762;2023-03-01T04:42:19;37.37;;;21.23;;
12480;SDS011;6305;48.398;11.762;2023-03-01T04:44:46;35.77;;;21.23;;
12480;SDS011;6305;48.398;11.762;2023-03-01T04:47:16;37.73;;;22.13;;
12480;SDS011;6305;48.398;11.762;2023-03-01T04:49:43;35.67;;;20.67;;
12480;SDS011;6305;48.398;11.762;2023-03-01T04:52:10;35.93;;;20.57;;
12480;SDS011;6305;48.398;11.762;2023-03-01T04:54:38;38.53;;;21.73;;
12480;SDS011;6305;48.398;11.762;2023-03-01T04:57:05;39.10;;;21.83;;
12480;SDS011;6305;48.398;11.762;2023-03-01T04:59:32;39.43;;;22.10;;
12480;SDS011;6305;48.398;11.762;2023-03-01T05:02:01;47.23;;;22.70;;
12480;SDS011;6305;48.398;11.762;2023-03-01T05:04:28;38.73;;;23.23;;
12480;SDS011;6305;48.398;11.762;2023-03-01T05:06:56;39.20;;;22.80;;
12480;SDS011;6305;48.398;11.762;2023-03-01T05:09:23;39.17;;;22.87;;
12480;SDS011;6305;48.398;11.762;2023-03-01T05:11:52;41.93;;;22.33;;
12480;SDS011;6305;48.398;11.762;2023-03-01T05:14:19;39.43;;;21.20;;
12480;SDS011;6305;48.398;11.762;2023-03-01T05:16:45;36.30;;;22.63;;
12480;SDS011;6305;48.398;11.762;2023-03-01T05:19:12;41.70;;;22.63;;
12480;SDS011;6305;48.398;11.762;2023-03-01T05:21:40;40.27;;;22.40;;
12480;SDS011;6305;48.398;11.762;2023-03-01T05:24:21;42.57;;;22.73;;
12480;SDS011;6305;48.398;11.762;2023-03-01T05:26:48;39.77;;;22.63;;
12480;SDS011;6305;48.398;11.762;2023-03-01T05:29:18;41.90;;;23.73;;
12480;SDS011;6305;48.398;11.762;2023-03-01T05:31:50;44.37;;;23.70;;
12480;SDS011;6305;48.398;11.762;2023-03-01T05:34:18;41.30;;;22.60;;
12480;SDS011;6305;48.398;11.762;2023-03-01T05:36:48;38.37;;;23.57;;
12480;SDS011;6305;48.398;11.762;2023-03-01T05:39:19;43.37;;;24.50;;
12480;SDS011;6305;48.398;11.762;2023-03-01T05:41:47;41.07;;;23.30;;
12480;SDS011;6305;48.398;11.762;2023-03-01T05:44:19;41.90;;;23.67;;
12480;SDS011;6305;48.398;11.762;2023-03-01T05:46:46;40.83;;;23.40;;
12480;SDS011;6305;48.398;11.762;2023-03-01T05:49:14;40.80;;;23.43;;
12480;SDS011;6305;48.398;11.762;2023-03-01T05:51:42;40.27;;;23.53;;
12480;SDS011;6305;48.398;11.762;2023-03-01T05:54:13;39.60;;;23.30;;
12480;SDS011;6305;48.398;11.762;2023-03-01T05:56:41;40.77;;;23.83;;
12480;SDS011;6305;48.398;11.762;2023-03-01T05:59:08;40.07;;;22.50;;
12480;SDS011;6305;48.398;11.762;2023-03-01T06:01:36;45.07;;;24.10;;
12480;SDS011;6305;48.398;11.762;2023-03-01T06:04:04;45.00;;;23.87;;
12480;SDS011;6305;48.398;11.762;2023-03-01T06:06:33;44.57;;;24.23;;
12480;SDS011;6305;48.398;11.762;2023-03-01T06:09:02;47.63;;;24.40;;
12480;SDS011;6305;48.398;11.762;2023-03-01T06:11:30;39.00;;;22.93;;
12480;SDS011;6305;48.398;11.762;2023-03-01T06:13:57;40.50;;;24.17;;
12480;SDS011;6305;48.398;11.762;2023-03-01T06:16:24;41.07;;;23.80;;
12480;SDS011;6305;48.398;11.762;2023-03-01T06:18:53;40.93;;;24.43;;
12480;SDS011;6305;48.398;11.762;2023-03-01T06:21:20;43.20;;;23.57;;
12480;SDS011;6305;48.398;11.762;2023-03-01T06:23:47;41.73;;;23.83;;
12480;SDS011;6305;48.398;11.762;2023-03-01T06:26:14;43.40;;;23.90;;
12480;SDS011;6305;48.398;11.762;2023-03-01T06:28:42;41.67;;;22.33;;
12480;SDS011;6305;48.398;11.762;2023-03-01T06:31:17;39.87;;;22.77;;
12480;SDS011;6305;48.398;11.762;2023-03-01T06:33:44;39.73;;;21.87;;
12480;SDS011;6305;48.398;11.762;2023-03-01T06:36:12;39.60;;;21.77;;
12480;SDS011;6305;48.398;11.762;2023-03-01T06:38:39;38.83;;;22.03;;
12480;SDS011;6305;48.398;11.762;2023-03-01T06:41:06;35.47;;;21.30;;
12480;SDS011;6305;48.398;11.762;2023-03-01T06:43:33;38.83;;;20.80;;
12480;SDS011;6305;48.398;11.762;2023-03-01T06:46:03;35.30;;;20.27;;
12480;SDS011;6305;48.398;11.762;2023-03-01T06:48:32;37.90;;;20.53;;
12480;SDS011;6305;48.398;11.762;2023-03-01T06:50:59;33.40;;;19.70;;
12480;SDS011;6305;48.398;11.762;2023-03-01T06:53:28;35.00;;;20.33;;
12480;SDS011;6305;48.398;11.762;2023-03-01T06:55:55;33.47;;;19.37;;
12480;SDS011;6305;48.398;11.762;2023-03-01T06:58:24;31.67;;;18.97;;
12480;SDS011;6305;48.398;11.762;2023-03-01T07:00:51;33.83;;;18.73;;
12480;SDS011;6305;48.398;11.762;2023-03-01T07:03:18;32.50;;;17.80;;
12480;SDS011;6305;48.398;11.762;2023-03-01T07:05:45;33.07;;;17.97;;
12480;SDS011;6305;48.398;11.762;2023-03-01T07:08:16;29.70;;;17.43;;
12480;SDS011;6305;48.398;11.762;2023-03-01T07:10:45;27.70;;;16.97;;
12480;SDS011;6305;48.398;11.762;2023-03-01T07:13:12;29.30;;;16.33;;
12480;SDS011;6305;48.398;11.762;2023-03-01T07:15:39;28.10;;;15.47;;
12480;SDS011;6305;48.398;11.762;2023-03-01T07:18:07;24.93;;;14.50;;
12480;SDS011;6305;48.398;11.762;2023-03-01T07:20:34;26.83;;;14.67;;
12480;SDS011;6305;48.398;11.762;2023-03-01T07:23:01;24.47;;;14.37;;
12480;SDS011;6305;48.398;11.762;2023-03-01T07:25:28;24.47;;;15.47;;
12480;SDS011;6305;48.398;11.762;2023-03-01T07:27:57;26.08;;;14.93;;
12480;SDS011;6305;48.398;11.762;2023-03-01T07:30:25;26.02;;;14.68;;
12480;SDS011;6305;48.398;11.762;2023-03-01T07:32:53;21.85;;;13.27;;
12480;SDS011;6305;48.398;11.762;2023-03-01T07:35:20;19.75;;;13.15;;
12480;SDS011;6305;48.398;11.762;2023-03-01T07:37:48;23.67;;;13.68;;
12480;SDS011;6305;48.398;11.762;2023-03-01T07:40:15;21.70;;;14.23;;
12480;SDS011;6305;48.398;11.762;2023-03-01T07:42:42;22.23;;;14.75;;
12480;SDS011;6305;48.398;11.762;2023-03-01T07:45:11;21.70;;;13.27;;
12480;SDS011;6305;48.398;11.762;2023-03-01T07:47:38;20.50;;;13.95;;
12480;SDS011;6305;48.398;11.762;2023-03-01T07:50:06;18.95;;;14.05;;
12480;SDS011;6305;48.398;11.762;2023-03-01T07:52:33;22.75;;;14.15;;
12480;SDS011;6305;48.398;11.762;2023-03-01T07:55:00;21.65;;;14.20;;
12480;SDS011;6305;48.398;11.762;2023-03-01T07:57:27;21.05;;;14.02;;
12480;SDS011;6305;48.398;11.762;2023-03-01T07:59:54;19.42;;;13.93;;
12480;SDS011;6305;48.398;11.762;2023-03-01T08:02:23;17.52;;;12.40;;
12480;SDS011;6305;48.398;11.762;2023-03-01T08:04:49;20.35;;;14.40;;
12480;SDS011;6305;48.398;11.762;2023-03-01T08:07:16;18.77;;;13.52;;
12480;SDS011;6305;48.398;11.762;2023-03-01T08:09:43;22.17;;;14.55;;
12480;SDS011;6305;48.398;11.762;2023-03-01T08:12:10;19.63;;;13.75;;
12480;SDS011;6305;48.398;11.762;2023-03-01T08:14:37;21.80;;;14.75;;
12480;SDS011;6305;48.398;11.762;2023-03-01T08:17:04;20.83;;;14.13;;
12480;SDS011;6305;48.398;11.762;2023-03-01T08:19:33;23.00;;;15.35;;
12480;SDS011;6305;48.398;11.762;2023-03-01T08:22:00;21.23;;;14.70;;
12480;SDS011;6305;48.398;11.762;2023-03-01T08:24:27;19.77;;;14.15;;
12480;SDS011;6305;48.398;11.762;2023-03-01T08:26:55;20.80;;;13.73;;
12480;SDS011;6305;48.398;11.762;2023-03-01T08:29:22;23.92;;;14.75;;
12480;SDS011;6305;48.398;11.762;2023-03-01T08:31:49;20.52;;;14.13;;
12480;SDS011;6305;48.398;11.762;2023-03-01T08:34:17;21.73;;;15.20;;
12480;SDS011;6305;48.398;11.762;2023-03-01T08:36:46;19.90;;;14.05;;
12480;SDS011;6305;48.398;11.762;2023-03-01T08:39:13;17.65;;;14.23;;
12480;SDS011;6305;48.398;11.762;2023-03-01T08:41:42;22.95;;;15.18;;
12480;SDS011;6305;48.398;11.762;2023-03-01T08:44:09;24.23;;;15.13;;
12480;SDS011;6305;48.398;11.762;2023-03-01T08:46:38;20.13;;;14.02;;
12480;SDS011;6305;48.398;11.762;2023-03-01T08:49:07;17.95;;;14.35;;
12480;SDS011;6305;48.398;11.762;2023-03-01T08:51:35;21.15;;;15.40;;
12480;SDS011;6305;48.398;11.762;2023-03-01T08:54:04;20.60;;;14.23;;
12480;SDS011;6305;48.398;11.762;2023-03-01T08:56:32;19.63;;;14.50;;
12480;SDS011;6305;48.398;11.762;2023-03-01T08:59:00;19.65;;;14.05;;
12480;SDS011;6305;48.398;11.762;2023-03-01T09:01:27;21.08;;;15.02;;
12480;SDS011;6305;48.398;11.762;2023-03-01T09:03:54;19.60;;;15.30;;
12480;SDS011;6305;48.398;11.762;2023-03-01T09:06:21;19.85;;;14.55;;
12480;SDS011;6305;48.398;11.762;2023-03-01T09:08:49;19.52;;;14.73;;
12480;SDS011;6305;48.398;11.762;2023-03-01T09:11:20;21.08;;;14.98;;
12480;SDS011;6305;48.398;11.762;2023-03-01T09:13:47;19.55;;;13.77;;
12480;SDS011;6305;48.398;11.762;2023-03-01T09:16:16;19.67;;;14.95;;
12480;SDS011;6305;48.398;11.762;2023-03-01T09:18:44;18.80;;;14.77;;
12480;SDS011;6305;48.398;11.762;2023-03-01T09:21:12;18.80;;;14.32;;
12480;SDS011;6305;48.398;11.762;2023-03-01T09:23:41;18.15;;;14.20;;
12480;SDS011;6305;48.398;11.762;2023-03-01T09:26:11;19.05;;;15.00;;
12480;SDS011;6305;48.398;11.762;2023-03-01T09:28:42;17.55;;;14.13;;
12480;SDS011;6305;48.398;11.762;2023-03-01T09:31:10;18.80;;;14.25;;
12480;SDS011;6305;48.398;11.762;2023-03-01T09:33:38;17.45;;;14.00;;
12480;SDS011;6305;48.398;11.762;2023-03-01T09:36:07;20.42;;;14.40;;
12480;SDS011;6305;48.398;11.762;2023-03-01T09:38:37;19.55;;;14.73;;
12480;SDS011;6305;48.398;11.762;2023-03-01T09:41:09;21.02;;;14.80;;
12480;SDS011;6305;48.398;11.762;2023-03-01T09:43:39;18.80;;;14.35;;
12480;SDS011;6305;48.398;11.762;2023-03-01T09:46:12;21.05;;;14.30;;
12480;SDS011;6305;48.398;11.762;2023-03-01T09:48:42;19.63;;;14.25;;
12480;SDS011;6305;48.398;11.762;2023-03-01T09:51:12;19.20;;;14.82;;
12480;SDS011;6305;48.398;11.762;2023-03-01T09:53:44;19.27;;;14.60;;
12480;SDS011;6305;48.398;11.762;2023-03-01T09:56:13;19.17;;;14.52;;
12480;SDS011;6305;48.398;11.762;2023-03-01T09:58:49;20.63;;;14.52;;
12480;SDS011;6305;48.398;11.762;2023-03-01T10:01:32;20.13;;;14.93;;
12480;SDS011;6305;48.398;11.762;2023-03-01T10:04:05;20.65;;;14.48;;
12480;SDS011;6305;48.398;11.762;2023-03-01T10:06:51;19.85;;;14.38;;
12480;SDS011;6305;48.398;11.762;2023-03-01T10:09:27;17.40;;;13.65;;
12480;SDS011;6305;48.398;11.762;2023-03-01T10:11:58;17.90;;;14.00;;
12480;SDS011;6305;48.398;11.762;2023-03-01T10:14:33;17.92;;;14.30;;
12480;SDS011;6305;48.398;11.762;2023-03-01T10:17:04;16.85;;;14.25;;
12480;SDS011;6305;48.398;11.762;2023-03-01T10:19:38;16.55;;;13.88;;
12480;SDS011;6305;48.398;11.762;2023-03-01T10:22:10;20.25;;;15.32;;
12480;SDS011;6305;48.398;11.762;2023-03-01T10:24:41;19.13;;;14.23;;
12480;SDS011;6305;48.398;11.762;2023-03-01T10:27:11;17.98;;;14.20;;
12480;SDS011;6305;48.398;11.762;2023-03-01T10:29:46;19.52;;;15.20;;
12480;SDS011;6305;48.398;11.762;2023-03-01T10:32:21;18.80;;;14.45;;
12480;SDS011;6305;48.398;11.762;2023-03-01T10:34:48;17.65;;;14.48;;
12480;SDS011;6305;48.398;11.762;2023-03-01T10:37:16;18.95;;;15.57;;
12480;SDS011;6305;48.398;11.762;2023-03-01T10:39:58;18.98;;;14.52;;
12480;SDS011;6305;48.398;11.762;2023-03-01T10:42:33;19.52;;;14.73;;
12480;SDS011;6305;48.398;11.762;2023-03-01T10:45:17;19.10;;;14.70;;
12480;SDS011;6305;48.398;11.762;2023-03-01T10:48:03;16.27;;;14.32;;
12480;SDS011;6305;48.398;11.762;2023-03-01T10:50:38;18.38;;;14.57;;
12480;SDS011;6305;48.398;11.762;2023-03-01T10:53:08;18.75;;;14.57;;
12480;SDS011;6305;48.398;11.762;2023-03-01T10:55:49;17.75;;;14.57;;
12480;SDS011;6305;48.398;11.762;2023-03-01T10:58:24;19.70;;;14.80;;
12480;SDS011;6305;48.398;11.762;2023-03-01T11:00:53;16.92;;;15.07;;
12480;SDS011;6305;48.398;11.762;2023-03-01T11:03:23;19.48;;;14.63;;
12480;SDS011;6305;48.398;11.762;2023-03-01T11:05:53;16.17;;;13.95;;
12480;SDS011;6305;48.398;11.762;2023-03-01T11:08:30;16.63;;;13.73;;
12480;SDS011;6305;48.398;11.762;2023-03-01T11:11:09;18.17;;;14.45;;
12480;SDS011;6305;48.398;11.762;2023-03-01T11:13:56;16.27;;;14.00;;
12480;SDS011;6305;48.398;11.762;2023-03-01T11:16:28;18.55;;;14.88;;
12480;SDS011;6305;48.398;11.762;2023-03-01T11:19:01;17.30;;;14.55;;
12480;SDS011;6305;48.398;11.762;2023-03-01T11:21:55;16.13;;;14.32;;
12480;SDS011;6305;48.398;11.762;2023-03-01T11:24:30;20.30;;;15.40;;
12480;SDS011;6305;48.398;11.762;2023-03-01T11:27:04;15.77;;;14.07;;
12480;SDS011;6305;48.398;11.762;2023-03-01T11:29:35;18.00;;;14.85;;
12480;SDS011;6305;48.398;11.762;2023-03-01T11:32:08;19.95;;;14.57;;
12480;SDS011;6305;48.398;11.762;2023-03-01T11:34:40;17.17;;;14.27;;
12480;SDS011;6305;48.398;11.762;2023-03-01T11:37:21;15.98;;;12.80;;
12480;SDS011;6305;48.398;11.762;2023-03-01T11:39:58;15.80;;;13.48;;
12480;SDS011;6305;48.398;11.762;2023-03-01T11:42:32;17.73;;;14.05;;
12480;SDS011;6305;48.398;11.762;2023-03-01T11:45:12;17.80;;;13.70;;
12480;SDS011;6305;48.398;11.762;2023-03-01T11:47:45;17.20;;;13.48;;
12480;SDS011;6305;48.398;11.762;2023-03-01T11:50:35;14.55;;;12.60;;
12480;SDS011;6305;48.398;11.762;2023-03-01T11:53:14;14.90;;;13.25;;
12480;SDS011;6305;48.398;11.762;2023-03-01T11:55:59;15.68;;;12.98;;
12480;SDS011;6305;48.398;11.762;2023-03-01T11:58:37;14.30;;;12.23;;
12480;SDS011;6305;48.398;11.762;2023-03-01T12:01:19;15.27;;;13.07;;
12480;SDS011;6305;48.398;11.762;2023-03-01T12:04:09;15.38;;;13.68;;
12480;SDS011;6305;48.398;11.762;2023-03-01T12:06:55;15.82;;;13.45;;
12480;SDS011;6305;48.398;11.762;2023-03-01T12:09:38;16.27;;;13.75;;
12480;SDS011;6305;48.398;11.762;2023-03-01T12:12:30;16.02;;;13.27;;
12480;SDS011;6305;48.398;11.762;2023-03-01T12:15:07;14.35;;;12.85;;
12480;SDS011;6305;48.398;11.762;2023-03-01T12:17:57;15.52;;;13.38;;
12480;SDS011;6305;48.398;11.762;2023-03-01T12:20:37;14.57;;;13.02;;
12480;SDS011;6305;48.398;11.762;2023-03-01T12:23:23;14.40;;;12.60;;
12480;SDS011;6305;48.398;11.762;2023-03-01T12:26:03;15.20;;;13.55;;
12480;SDS011;6305;48.398;11.762;2023-03-01T12:28:44;14.57;;;13.07;;
12480;SDS011;6305;48.398;11.762;2023-03-01T12:31:34;15.40;;;13.48;;
12480;SDS011;6305;48.398;11.762;2023-03-01T12:34:16;17.73;;;13.00;;
12480;SDS011;6305;48.398;11.762;2023-03-01T12:37:13;16.05;;;12.95;;
12480;SDS011;6305;48.398;11.762;2023-03-01T12:39:51;15.20;;;12.48;;
12480;SDS011;6305;48.398;11.762;2023-03-01T12:42:31;13.57;;;11.80;;
12480;SDS011;6305;48.398;11.762;2023-03-01T12:45:25;16.42;;;12.00;;
12480;SDS011;6305;48.398;11.762;2023-03-01T12:48:03;15.13;;;12.85;;
12480;SDS011;6305;48.398;11.762;2023-03-01T12:50:44;14.63;;;12.68;;
12480;SDS011;6305;48.398;11.762;2023-03-01T12:53:20;14.20;;;12.45;;
12480;SDS011;6305;48.398;11.762;2023-03-01T12:55:49;15.20;;;12.05;;
12480;SDS011;6305;48.398;11.762;2023-03-01T12:58:21;14.77;;;12.00;;
12480;SDS011;6305;48.398;11.762;2023-03-01T13:01:00;15.18;;;12.18;;
12480;SDS011;6305;48.398;11.762;2023-03-01T13:03:35;15.95;;;11.95;;
12480;SDS011;6305;48.398;11.762;2023-03-01T13:06:15;13.85;;;12.38;;
12480;SDS011;6305;48.398;11.762;2023-03-01T13:08:52;15.27;;;12.57;;
12480;SDS011;6305;48.398;11.762;2023-03-01T13:11:26;13.85;;;12.18;;
12480;SDS011;6305;48.398;11.762;2023-03-01T13:16:57;14.02;;;12.20;;
12480;SDS011;6305;48.398;11.762;2023-03-01T13:19:25;13.27;;;11.60;;
12480;SDS011;6305;48.398;11.762;2023-03-01T13:21:54;14.80;;;12.20;;
12480;SDS011;6305;48.398;11.762;2023-03-01T13:24:28;14.05;;;11.70;;
12480;SDS011;6305;48.398;11.762;2023-03-01T13:27:21;14.57;;;11.18;;
12480;SDS011;6305;48.398;11.762;2023-03-01T13:29:55;13.77;;;12.30;;
12480;SDS011;6305;48.398;11.762;2023-03-01T13:32:26;16.02;;;12.02;;
12480;SDS011;6305;48.398;11.762;2023-03-01T13:34:55;14.65;;;11.95;;
12480;SDS011;6305;48.398;11.762;2023-03-01T13:37:27;18.60;;;12.63;;
12480;SDS011;6305;48.398;11.762;2023-03-01T13:43:26;15.40;;;12.15;;
12480;SDS011;6305;48.398;11.762;2023-03-01T13:45:58;15.95;;;12.70;;
12480;SDS011;6305;48.398;11.762;2023-03-01T13:48:27;13.90;;;12.27;;
12480;SDS011;6305;48.398;11.762;2023-03-01T13:50:57;13.45;;;11.70;;
12480;SDS011;6305;48.398;11.762;2023-03-01T13:53:29;14.35;;;11.65;;
12480;SDS011;6305;48.398;11.762;2023-03-01T13:56:02;15.27;;;12.50;;
12480;SDS011;6305;48.398;11.762;2023-03-01T13:58:46;14.15;;;11.55;;
12480;SDS011;6305;48.398;11.762;2023-03-01T14:01:23;14.25;;;11.57;;
12480;SDS011;6305;48.398;11.762;2023-03-01T14:03:54;13.68;;;11.73;;
12480;SDS011;6305;48.398;11.762;2023-03-01T14:06:23;13.77;;;11.55;;
12480;SDS011;6305;48.398;11.762;2023-03-01T14:09:02;14.35;;;11.77;;
12480;SDS011;6305;48.398;11.762;2023-03-01T14:12:00;15.43;;;12.20;;
12480;SDS011;6305;48.398;11.762;2023-03-01T14:14:45;14.00;;;10.73;;
12480;SDS011;6305;48.398;11.762;2023-03-01T14:17:20;13.57;;;11.02;;
12480;SDS011;6305;48.398;11.762;2023-03-01T14:19:59;13.52;;;11.18;;
12480;SDS011;6305;48.398;11.762;2023-03-01T14:22:30;14.13;;;11.40;;
12480;SDS011;6305;48.398;11.762;2023-03-01T14:25:16;12.98;;;10.05;;
12480;SDS011;6305;48.398;11.762;2023-03-01T14:27:50;15.15;;;10.80;;
12480;SDS011;6305;48.398;11.762;2023-03-01T14:30:30;12.00;;;10.20;;
12480;SDS011;6305;48.398;11.762;2023-03-01T14:33:01;13.57;;;10.65;;
12480;SDS011;6305;48.398;11.762;2023-03-01T14:35:31;12.20;;;10.43;;
12480;SDS011;6305;48.398;11.762;2023-03-01T14:37:59;14.90;;;10.55;;
12480;SDS011;6305;48.398;11.762;2023-03-01T14:40:28;11.50;;;9.73;;
12480;SDS011;6305;48.398;11.762;2023-03-01T14:42:57;12.57;;;10.52;;
12480;SDS011;6305;48.398;11.762;2023-03-01T14:45:31;12.48;;;9.98;;
12480;SDS011;6305;48.398;11.762;2023-03-01T14:47:59;13.35;;;10.60;;
12480;SDS011;6305;48.398;11.762;2023-03-01T14:50:28;12.88;;;10.10;;